createdAt,value
2023-03-29T00:02:07.390Z,0.30
2023-03-29T00:04:40.622Z,0.30
2023-03-29T00:07:12.851Z,0.50
2023-03-29T00:09:42.948Z,0.50
2023-03-29T00:12:19.125Z,0.40
2023-03-29T00:14:51.666Z,1.05
2023-03-29T00:17:22.186Z,0.30
2023-03-29T00:19:55.075Z,0.70
2023-03-29T00:22:22.591Z,0.30
2023-03-29T00:24:55.109Z,0.22
2023-03-29T00:27:23.313Z,0.30
2023-03-29T00:29:50.668Z,0.45
2023-03-29T00:32:18.288Z,0.43
2023-03-29T00:35:05.504Z,0.32
2023-03-29T00:37:35.183Z,0.60
2023-03-29T00:40:07.954Z,0.85
2023-03-29T00:42:37.980Z,0.50
2023-03-29T00:45:07.645Z,0.50
2023-03-29T00:47:39.303Z,0.32
2023-03-29T00:50:38.136Z,0.60
2023-03-29T00:53:19.476Z,0.43
2023-03-29T00:55:54.433Z,0.50
2023-03-29T00:58:32.675Z,0.30
2023-03-29T01:01:05.557Z,0.57
2023-03-29T01:03:48.917Z,0.75
2023-03-29T01:06:29.240Z,0.30
2023-03-29T01:09:16.692Z,0.40
2023-03-29T01:12:04.854Z,0.30
2023-03-29T01:14:41.107Z,0.20
2023-03-29T01:17:23.765Z,0.60
2023-03-29T01:20:05.123Z,0.40
2023-03-29T01:23:02.484Z,0.30
2023-03-29T01:25:47.311Z,0.30
2023-03-29T01:28:29.987Z,0.30
2023-03-29T01:31:31.708Z,0.20
2023-03-29T01:34:26.462Z,0.20
2023-03-29T01:37:14.338Z,0.38
2023-03-29T01:39:47.558Z,0.47
2023-03-29T01:42:36.385Z,0.55
2023-03-29T01:45:14.291Z,0.40
2023-03-29T01:47:51.715Z,0.30
2023-03-29T01:50:40.851Z,0.60
2023-03-29T01:53:26.666Z,0.40
2023-03-29T01:56:07.893Z,0.30
2023-03-29T01:58:41.767Z,0.40
2023-03-29T02:01:19.700Z,0.63
2023-03-29T02:03:58.425Z,0.50
2023-03-29T02:06:34.375Z,0.55
2023-03-29T02:09:02.881Z,0.70
2023-03-29T02:11:35.452Z,0.77
2023-03-29T02:14:03.682Z,0.60
2023-03-29T02:16:39.043Z,0.80
2023-03-29T02:19:11.832Z,0.73
2023-03-29T02:22:04.627Z,1.27
2023-03-29T02:24:52.213Z,0.70
2023-03-29T02:27:24.672Z,0.60
2023-03-29T02:29:57.883Z,0.90
2023-03-29T02:32:41.953Z,0.63
2023-03-29T02:35:26.563Z,0.85
2023-03-29T02:38:02.678Z,1.00
2023-03-29T02:40:42.854Z,1.13
2023-03-29T02:43:24.520Z,0.90
2023-03-29T02:45:56.722Z,0.90
2023-03-29T02:48:33.150Z,1.15
2023-03-29T02:51:14.496Z,0.73
2023-03-29T02:54:17.620Z,0.60
2023-03-29T02:57:13.280Z,0.70
2023-03-29T02:59:49.876Z,0.75
2023-03-29T03:02:26.018Z,0.70
2023-03-29T03:05:06.108Z,1.13
2023-03-29T03:07:34.037Z,1.20
2023-03-29T03:10:05.715Z,1.10
2023-03-29T03:12:39.844Z,1.08
2023-03-29T03:15:19.652Z,0.73
2023-03-29T03:17:50.639Z,0.80
2023-03-29T03:20:45.392Z,0.82
2023-03-29T03:23:13.284Z,0.50
2023-03-29T03:25:47.461Z,0.70
2023-03-29T03:28:16.072Z,0.77
2023-03-29T03:30:46.450Z,0.60
2023-03-29T03:33:41.157Z,0.70
2023-03-29T03:36:29.605Z,0.60
2023-03-29T03:39:01.889Z,0.40
2023-03-29T03:41:30.490Z,0.40
2023-03-29T03:43:57.798Z,0.68
2023-03-29T03:46:29.786Z,0.40
2023-03-29T03:49:11.065Z,0.50
2023-03-29T03:51:53.369Z,0.50
2023-03-29T03:54:25.841Z,0.35
2023-03-29T03:57:16.675Z,0.40
2023-03-29T03:59:49.113Z,0.45
2023-03-29T04:04:49.598Z,0.50
2023-03-29T04:07:22.430Z,0.43
2023-03-29T04:09:55.738Z,0.50
2023-03-29T04:12:45.427Z,0.63
2023-03-29T04:15:13.051Z,0.90
2023-03-29T04:17:50.544Z,0.60
2023-03-29T04:20:49.293Z,0.50
2023-03-29T04:23:22.536Z,0.82
2023-03-29T04:25:56.236Z,1.10
2023-03-29T04:28:48.679Z,0.80
2023-03-29T04:31:47.383Z,0.80
2023-03-29T04:34:34.489Z,1.10
2023-03-29T04:37:14.763Z,1.13
2023-03-29T04:39:48.761Z,0.88
2023-03-29T04:42:35.168Z,0.85
2023-03-29T04:45:10.055Z,0.80
2023-03-29T04:48:05.210Z,1.02
2023-03-29T04:50:36.129Z,0.70
2023-03-29T04:53:08.512Z,0.50
2023-03-29T04:55:36.278Z,0.50
2023-03-29T04:58:05.538Z,0.43
2023-03-29T05:00:42.092Z,0.40
2023-03-29T05:03:22.301Z,0.52
2023-03-29T05:06:15.982Z,0.40
2023-03-29T05:08:50.247Z,0.40
2023-03-29T05:11:36.000Z,0.30
2023-03-29T05:14:07.471Z,0.50
2023-03-29T05:16:35.823Z,0.20
2023-03-29T05:19:06.503Z,0.30
2023-03-29T05:21:38.965Z,0.30
2023-03-29T05:24:15.638Z,0.30
2023-03-29T05:27:03.830Z,0.40
2023-03-29T05:29:35.230Z,0.30
2023-03-29T05:32:26.399Z,0.22
2023-03-29T05:34:59.084Z,0.20
2023-03-29T05:37:28.064Z,0.35
2023-03-29T05:42:43.602Z,0.20
2023-03-29T05:45:12.038Z,0.30
2023-03-29T05:47:42.089Z,0.30
2023-03-29T05:52:45.126Z,0.20
2023-03-29T05:55:15.144Z,0.30
2023-03-29T05:57:49.178Z,0.10
2023-03-29T06:00:25.703Z,0.40
2023-03-29T06:03:14.053Z,0.30
2023-03-29T06:05:53.334Z,0.30
2023-03-29T06:11:18.094Z,0.30
2023-03-29T06:14:29.185Z,0.30
2023-03-29T06:17:10.791Z,0.32
2023-03-29T06:19:38.259Z,0.40
2023-03-29T06:22:13.688Z,0.50
2023-03-29T06:24:48.868Z,0.52
2023-03-29T06:27:26.328Z,0.43
2023-03-29T06:30:00.469Z,0.47
2023-03-29T06:32:31.149Z,0.28
2023-03-29T06:35:13.777Z,0.32
2023-03-29T06:38:04.671Z,0.55
2023-03-29T06:41:02.057Z,0.60
2023-03-29T06:43:38.109Z,1.00
2023-03-29T06:46:19.285Z,1.20
2023-03-29T06:49:08.882Z,1.30
2023-03-29T06:51:51.212Z,1.48
2023-03-29T06:54:19.389Z,2.03
2023-03-29T06:56:59.891Z,1.98
2023-03-29T06:59:31.309Z,1.25
2023-03-29T07:02:09.126Z,1.50
2023-03-29T07:04:59.304Z,1.90
2023-03-29T07:11:02.053Z,1.85
2023-03-29T07:14:21.650Z,2.83
2023-03-29T07:16:49.745Z,2.30
2023-03-29T07:19:27.946Z,1.20
2023-03-29T07:22:39.954Z,2.03
2023-03-29T07:25:09.794Z,2.15
2023-03-29T07:27:42.405Z,1.75
2023-03-29T07:30:23.845Z,1.33
2023-03-29T07:32:56.335Z,1.65
2023-03-29T07:35:33.015Z,1.50
2023-03-29T07:38:08.371Z,1.30
2023-03-29T07:40:40.878Z,1.17
2023-03-29T07:43:32.772Z,1.23
2023-03-29T07:46:19.744Z,1.38
2023-03-29T07:48:52.712Z,1.38
2023-03-29T07:51:20.682Z,1.25
2023-03-29T07:53:49.942Z,1.10
2023-03-29T07:56:45.847Z,1.58
2023-03-29T07:59:20.825Z,1.10
2023-03-29T08:01:55.731Z,1.10
2023-03-29T08:04:33.183Z,1.73
2023-03-29T08:11:03.770Z,1.25
2023-03-29T08:13:48.359Z,1.38
2023-03-29T08:16:21.733Z,1.20
2023-03-29T08:18:56.033Z,2.08
2023-03-29T08:21:26.835Z,1.48
2023-03-29T08:23:56.327Z,1.75
2023-03-29T08:26:45.079Z,2.40
2023-03-29T08:29:16.374Z,2.05
2023-03-29T08:31:50.707Z,1.85
2023-03-29T08:34:21.766Z,1.80
2023-03-29T08:37:00.818Z,3.00
2023-03-29T08:39:37.963Z,2.92
2023-03-29T08:42:38.603Z,1.90
2023-03-29T08:45:25.541Z,2.53
2023-03-29T08:48:24.549Z,2.50
2023-03-29T08:50:58.683Z,2.50
2023-03-29T08:53:38.669Z,2.08
2023-03-29T08:56:26.832Z,2.17
2023-03-29T08:59:20.776Z,2.50
2023-03-29T09:01:51.995Z,2.47
2023-03-29T09:04:39.994Z,2.08
2023-03-29T09:07:20.053Z,4.03
2023-03-29T09:09:48.142Z,3.10
2023-03-29T09:12:58.764Z,3.15
2023-03-29T09:15:52.430Z,4.07
2023-03-29T09:18:47.570Z,3.60
2023-03-29T09:21:29.904Z,3.22
2023-03-29T09:24:17.291Z,3.50
2023-03-29T09:27:32.395Z,3.08
2023-03-29T09:30:29.494Z,2.80
2023-03-29T09:33:24.588Z,3.63
2023-03-29T09:36:38.446Z,3.38
2023-03-29T09:39:06.226Z,3.55
2023-03-29T09:42:08.369Z,3.42
2023-03-29T09:44:46.948Z,2.95
2023-03-29T09:47:29.632Z,4.05
2023-03-29T09:50:27.281Z,2.97
2023-03-29T09:52:56.597Z,3.70
2023-03-29T09:55:29.141Z,3.88
2023-03-29T09:58:34.017Z,2.80
2023-03-29T10:01:04.885Z,3.88
2023-03-29T10:03:37.216Z,3.72
2023-03-29T10:06:12.283Z,3.70
2023-03-29T10:08:59.126Z,5.10
2023-03-29T10:11:51.781Z,5.05
2023-03-29T10:14:37.173Z,5.55
2023-03-29T10:17:23.100Z,5.85
2023-03-29T10:19:58.127Z,6.22
2023-03-29T10:22:37.875Z,4.60
2023-03-29T10:25:13.499Z,5.40
2023-03-29T10:27:45.119Z,4.90
2023-03-29T10:30:29.990Z,4.57
2023-03-29T10:33:02.527Z,3.80
2023-03-29T10:35:41.937Z,4.32
2023-03-29T10:38:15.078Z,2.88
2023-03-29T10:40:50.816Z,4.35
2023-03-29T10:43:26.575Z,4.88
2023-03-29T10:46:06.792Z,4.75
2023-03-29T10:48:36.252Z,4.38
2023-03-29T10:51:09.731Z,4.47
2023-03-29T10:53:38.094Z,4.43
2023-03-29T10:56:28.015Z,5.18
2023-03-29T10:59:14.488Z,3.92
2023-03-29T11:02:13.725Z,5.00
2023-03-29T11:05:01.489Z,4.55
2023-03-29T11:07:35.651Z,3.97
2023-03-29T11:10:19.806Z,4.13
2023-03-29T11:13:11.965Z,3.90
2023-03-29T11:15:45.459Z,3.97
2023-03-29T11:18:41.273Z,3.70
2023-03-29T11:21:33.494Z,4.10
2023-03-29T11:24:19.491Z,4.50
2023-03-29T11:26:55.812Z,3.97
2023-03-29T11:29:41.036Z,2.83
2023-03-29T11:32:33.406Z,3.10
2023-03-29T11:35:44.139Z,3.38
2023-03-29T11:38:25.875Z,3.17
2023-03-29T11:41:17.817Z,2.33
2023-03-29T11:44:01.730Z,2.17
2023-03-29T11:46:43.833Z,3.15
2023-03-29T11:49:33.664Z,2.80
2023-03-29T11:52:18.645Z,2.03
2023-03-29T11:54:55.949Z,2.70
2023-03-29T11:57:28.933Z,2.40
2023-03-29T11:59:59.690Z,2.30
2023-03-29T12:02:56.898Z,1.83
2023-03-29T12:05:58.683Z,2.85
2023-03-29T12:08:33.520Z,2.58
2023-03-29T12:11:30.003Z,2.17
2023-03-29T12:14:10.988Z,2.70
2023-03-29T12:17:04.402Z,3.38
2023-03-29T12:19:45.443Z,2.40
2023-03-29T12:22:12.593Z,4.18
2023-03-29T12:24:47.820Z,3.45
2023-03-29T12:27:32.783Z,3.20
2023-03-29T12:30:19.934Z,3.58
2023-03-29T12:33:07.432Z,2.72
2023-03-29T12:35:54.228Z,3.28
2023-03-29T12:38:42.102Z,3.15
2023-03-29T12:41:34.284Z,3.13
2023-03-29T12:44:42.985Z,3.17
2023-03-29T12:47:23.713Z,3.08
2023-03-29T12:49:59.002Z,2.70
2023-03-29T12:52:35.333Z,2.83
2023-03-29T12:55:23.261Z,3.95
2023-03-29T12:58:06.691Z,3.83
2023-03-29T13:00:36.981Z,3.30
2023-03-29T13:03:20.006Z,3.08
2023-03-29T13:05:50.043Z,2.85
2023-03-29T13:08:26.520Z,2.75
2023-03-29T13:10:55.908Z,2.70
2023-03-29T13:13:27.911Z,2.85
2023-03-29T13:15:55.829Z,2.90
2023-03-29T13:18:46.082Z,2.58
2023-03-29T13:21:20.903Z,2.83
2023-03-29T13:24:14.332Z,1.95
2023-03-29T13:26:55.538Z,1.67
2023-03-29T13:29:52.276Z,1.83
2023-03-29T13:32:38.178Z,1.38
2023-03-29T13:35:22.783Z,2.10
2023-03-29T13:38:17.972Z,1.30
2023-03-29T13:41:03.185Z,1.67
2023-03-29T13:44:04.532Z,1.33
2023-03-29T13:46:42.744Z,1.73
2023-03-29T13:49:23.391Z,1.70
2023-03-29T13:51:53.680Z,1.70
2023-03-29T13:54:29.671Z,2.00
2023-03-29T13:57:02.194Z,1.95
2023-03-29T14:00:00.191Z,1.75
2023-03-29T14:02:54.098Z,1.30
2023-03-29T14:05:38.492Z,1.60
2023-03-29T14:08:08.613Z,1.85
2023-03-29T14:10:41.191Z,2.53
2023-03-29T14:13:16.622Z,2.33
2023-03-29T14:15:56.125Z,2.13
2023-03-29T14:18:25.724Z,1.77
2023-03-29T14:20:55.433Z,2.08
2023-03-29T14:23:30.486Z,1.52
2023-03-29T14:26:21.448Z,1.75
2023-03-29T14:28:56.722Z,1.92
2023-03-29T14:31:26.624Z,2.10
2023-03-29T14:33:58.758Z,2.10
2023-03-29T14:36:27.810Z,1.55
2023-03-29T14:39:04.287Z,1.92
2023-03-29T14:41:34.426Z,1.42
2023-03-29T14:44:03.336Z,1.65
2023-03-29T14:46:31.737Z,1.45
2023-03-29T14:49:02.361Z,1.67
2023-03-29T14:51:31.097Z,1.80
2023-03-29T14:54:03.438Z,2.00
2023-03-29T14:59:04.901Z,1.23
2023-03-29T15:01:32.492Z,1.13
2023-03-29T15:04:09.205Z,1.08
2023-03-29T15:06:41.752Z,1.42
2023-03-29T15:09:29.964Z,1.70
2023-03-29T15:11:59.642Z,2.15
2023-03-29T15:14:30.085Z,2.20
2023-03-29T15:17:03.189Z,2.60
2023-03-29T15:19:31.047Z,2.22
2023-03-29T15:22:11.287Z,1.65
2023-03-29T15:24:45.171Z,1.13
2023-03-29T15:27:19.232Z,1.30
2023-03-29T15:29:47.677Z,1.90
2023-03-29T15:32:22.667Z,2.00
2023-03-29T15:35:05.245Z,1.73
2023-03-29T15:37:37.985Z,1.73
2023-03-29T15:40:10.300Z,1.45
2023-03-29T15:45:06.565Z,1.10
2023-03-29T15:47:34.150Z,1.38
2023-03-29T15:50:01.313Z,1.65
2023-03-29T15:52:31.743Z,2.17
2023-03-29T15:55:00.126Z,1.85
2023-03-29T15:57:27.205Z,1.73
2023-03-29T15:59:54.591Z,1.45
2023-03-29T16:02:25.411Z,1.60
2023-03-29T16:04:56.722Z,1.55
2023-03-29T16:07:25.057Z,1.27
2023-03-29T16:09:54.724Z,1.27
2023-03-29T16:12:23.071Z,2.00
2023-03-29T16:14:50.137Z,1.50
2023-03-29T16:17:27.605Z,1.23
2023-03-29T16:19:59.933Z,1.50
2023-03-29T16:22:28.422Z,1.30
2023-03-29T16:24:56.275Z,0.98
2023-03-29T16:27:23.605Z,0.82
2023-03-29T16:29:50.584Z,0.80
2023-03-29T16:32:17.723Z,1.20
2023-03-29T16:34:44.781Z,1.10
2023-03-29T16:37:13.131Z,0.70
2023-03-29T16:39:43.568Z,0.70
2023-03-29T16:42:12.348Z,0.70
2023-03-29T16:44:39.484Z,1.20
2023-03-29T16:47:06.496Z,0.80
2023-03-29T16:49:33.492Z,1.92
2023-03-29T16:52:10.513Z,0.95
2023-03-29T16:54:37.536Z,1.20
2023-03-29T16:57:04.669Z,2.05
2023-03-29T16:59:31.851Z,1.45
2023-03-29T17:01:59.077Z,0.95
2023-03-29T17:04:26.414Z,1.10
2023-03-29T17:06:53.593Z,1.00
2023-03-29T17:09:21.279Z,0.80
2023-03-29T17:12:08.617Z,0.82
2023-03-29T17:14:35.985Z,0.57
2023-03-29T17:17:03.123Z,0.85
2023-03-29T17:19:30.278Z,0.75
2023-03-29T17:22:01.110Z,0.70
2023-03-29T17:24:28.288Z,0.60
2023-03-29T17:26:55.304Z,0.80
2023-03-29T17:29:22.333Z,0.80
2023-03-29T17:31:49.359Z,1.05
2023-03-29T17:34:18.068Z,0.70
2023-03-29T17:36:46.182Z,0.47
2023-03-29T17:39:22.878Z,0.60
2023-03-29T17:41:50.371Z,0.50
2023-03-29T17:44:17.392Z,0.60
2023-03-29T17:46:44.520Z,0.88
2023-03-29T17:49:12.234Z,0.40
2023-03-29T17:51:39.283Z,0.38
2023-03-29T17:54:06.302Z,0.50
2023-03-29T17:56:34.005Z,0.65
2023-03-29T17:59:01.235Z,0.55
2023-03-29T18:01:29.715Z,0.50
2023-03-29T18:03:59.544Z,0.50
2023-03-29T18:06:27.112Z,0.60
2023-03-29T18:08:58.288Z,1.10
2023-03-29T18:11:25.910Z,0.70
2023-03-29T18:13:53.776Z,0.65
2023-03-29T18:16:22.450Z,0.60
2023-03-29T18:18:49.618Z,0.70
2023-03-29T18:21:17.482Z,0.75
2023-03-29T18:23:47.129Z,0.85
2023-03-29T18:26:15.813Z,0.57
2023-03-29T18:28:50.948Z,0.60
2023-03-29T18:31:20.826Z,0.57
2023-03-29T18:33:48.376Z,0.60
2023-03-29T18:36:16.186Z,0.73
2023-03-29T18:38:43.806Z,0.50
2023-03-29T18:41:15.069Z,0.50
2023-03-29T18:43:43.243Z,0.80
2023-03-29T18:46:12.842Z,0.28
2023-03-29T18:48:41.132Z,0.50
2023-03-29T18:51:10.589Z,0.50
2023-03-29T18:53:38.895Z,0.70
2023-03-29T18:56:06.754Z,0.70
2023-03-29T18:58:34.229Z,0.70
2023-03-29T19:01:03.735Z,0.60
2023-03-29T19:03:32.677Z,0.80
2023-03-29T19:06:00.894Z,0.77
2023-03-29T19:08:31.000Z,0.80
2023-03-29T19:11:02.927Z,0.82
2023-03-29T19:13:30.235Z,1.35
2023-03-29T19:15:59.779Z,0.80
2023-03-29T19:18:26.844Z,0.88
2023-03-29T19:20:54.363Z,1.20
2023-03-29T19:23:22.797Z,1.02
2023-03-29T19:26:22.440Z,1.25
2023-03-29T19:29:18.438Z,0.90
2023-03-29T19:31:48.878Z,1.15
2023-03-29T19:34:19.616Z,1.10
2023-03-29T19:36:47.008Z,0.70
2023-03-29T19:39:14.134Z,0.98
2023-03-29T19:41:41.962Z,0.93
2023-03-29T19:44:09.112Z,0.80
2023-03-29T19:46:36.222Z,0.82
2023-03-29T19:49:05.146Z,1.02
2023-03-29T19:51:32.722Z,0.85
2023-03-29T19:53:59.926Z,0.70
2023-03-29T19:56:27.864Z,0.80
2023-03-29T19:58:54.998Z,0.88
2023-03-29T20:01:22.706Z,0.75
2023-03-29T20:03:50.636Z,0.80
2023-03-29T20:06:20.113Z,0.75
2023-03-29T20:08:52.015Z,0.52
2023-03-29T20:11:23.863Z,0.70
2023-03-29T20:17:59.372Z,0.80
2023-03-29T20:20:27.712Z,0.68
2023-03-29T20:23:33.447Z,0.80
2023-03-29T20:26:05.833Z,0.77
2023-03-29T20:28:33.426Z,0.75
2023-03-29T20:31:10.833Z,0.95
2023-03-29T20:33:58.952Z,0.75
2023-03-29T20:36:32.140Z,0.90
2023-03-29T20:39:00.287Z,0.80
2023-03-29T20:41:27.657Z,0.98
2023-03-29T20:44:03.019Z,1.00
2023-03-29T20:46:38.081Z,0.80
2023-03-29T20:49:09.103Z,1.00
2023-03-29T20:51:37.999Z,0.93
2023-03-29T20:54:07.773Z,1.10
2023-03-29T20:56:38.997Z,1.02
2023-03-29T20:59:15.624Z,0.93
2023-03-29T21:01:47.946Z,1.20
2023-03-29T21:04:18.129Z,1.40
2023-03-29T21:06:49.753Z,1.15
2023-03-29T21:09:19.141Z,1.20
2023-03-29T21:11:46.184Z,1.20
2023-03-29T21:14:14.327Z,1.40
2023-03-29T21:16:45.537Z,1.17
2023-03-29T21:19:12.904Z,1.05
2023-03-29T21:21:41.454Z,0.70
2023-03-29T21:24:10.991Z,1.33
2023-03-29T21:26:40.184Z,1.10
2023-03-29T21:29:07.829Z,1.50
2023-03-29T21:31:56.183Z,1.52
2023-03-29T21:34:26.204Z,1.13
2023-03-29T21:37:07.716Z,1.35
2023-03-29T21:39:38.228Z,1.00
2023-03-29T21:42:13.397Z,1.27
2023-03-29T21:44:47.446Z,1.30
2023-03-29T21:47:16.874Z,0.93
2023-03-29T21:49:43.778Z,1.10
2023-03-29T21:52:10.830Z,1.20
2023-03-29T21:54:37.802Z,1.30
2023-03-29T21:57:04.806Z,1.38
2023-03-29T21:59:31.901Z,0.90
2023-03-29T22:02:00.734Z,0.82
2023-03-29T22:04:36.587Z,0.95
2023-03-29T22:07:05.982Z,0.80
2023-03-29T22:09:35.422Z,0.90
2023-03-29T22:12:04.023Z,0.70
2023-03-29T22:14:35.099Z,0.60
2023-03-29T22:17:06.203Z,0.53
2023-03-29T22:19:39.269Z,0.80
2023-03-29T22:22:13.712Z,0.60
2023-03-29T22:24:42.141Z,1.02
2023-03-29T22:27:10.455Z,0.85
2023-03-29T22:29:37.617Z,0.65
2023-03-29T22:32:04.953Z,0.80
2023-03-29T22:34:32.854Z,0.77
2023-03-29T22:37:00.211Z,0.82
2023-03-29T22:39:27.552Z,0.80
2023-03-29T22:41:54.838Z,0.98
2023-03-29T22:44:21.737Z,0.65
2023-03-29T22:46:48.871Z,0.88
2023-03-29T22:49:15.824Z,0.98
2023-03-29T22:51:45.878Z,0.70
2023-03-29T22:54:12.964Z,0.70
2023-03-29T22:56:39.892Z,0.82
2023-03-29T22:59:07.000Z,0.90
2023-03-29T23:01:34.185Z,0.73
2023-03-29T23:04:01.525Z,0.95
2023-03-29T23:06:31.098Z,0.60
2023-03-29T23:08:58.206Z,1.10
2023-03-29T23:11:29.107Z,0.60
2023-03-29T23:13:56.079Z,0.90
2023-03-29T23:16:23.222Z,0.98
2023-03-29T23:18:50.451Z,0.80
2023-03-29T23:21:17.657Z,0.60
2023-03-29T23:23:44.781Z,0.60
2023-03-29T23:26:11.832Z,0.73
2023-03-29T23:28:38.849Z,0.52
2023-03-29T23:31:10.136Z,0.70
2023-03-29T23:33:40.309Z,0.80
2023-03-29T23:36:13.166Z,0.60
2023-03-29T23:38:40.842Z,0.50
2023-03-29T23:41:10.908Z,0.60
2023-03-29T23:43:40.505Z,0.85
2023-03-29T23:46:15.178Z,0.50
2023-03-29T23:48:47.123Z,0.60
2023-03-29T23:51:14.187Z,0.50
2023-03-29T23:53:41.587Z,0.50
2023-03-29T23:56:09.138Z,0.47
2023-03-29T23:58:37.502Z,0.47
